KAC103 OMAA-OMDB
Flight info
| Callsign | KAC103 |
|---|---|
| Flight time | 0h 23m |
| Altitude | 9000 |
| Route | LORID |
| Aircraft | B77W/H-SDE1E2E3FGHIJ2J3J4J5M1RWXY/LB1D1 |
Departure
| Time | 2026-04-23 19:50 |
|---|---|
| Airport | Zayed International Airport (OMAA) |
Arrival
| Time | 2026-04-23 20:13 |
|---|---|
| Airport | Dubai International Airport (OMDB) |
| Time | Latitude | Longitude | Altitude | Speed | Heading |
|---|---|---|---|---|---|
| 2026-04-23 19:31 | 24.42173 | 54.65697 | 53 ft | 0 kts | 216° |
| 2026-04-23 19:41 | 24.42187 | 54.65707 | 53 ft | 3 kts | 214° |
| 2026-04-23 19:41 | 24.42208 | 54.65722 | 55 ft | 3 kts | 208° |
| 2026-04-23 19:41 | 24.42223 | 54.65729 | 53 ft | 2 kts | 192° |
| 2026-04-23 19:42 | 24.42235 | 54.65730 | 53 ft | 2 kts | 163° |
| 2026-04-23 19:42 | 24.42245 | 54.65725 | 53 ft | 2 kts | 138° |
| 2026-04-23 19:42 | 24.42253 | 54.65716 | 53 ft | 2 kts | 130° |
| 2026-04-23 19:42 | 24.42258 | 54.65709 | 53 ft | 0 kts | 129° |
| 2026-04-23 19:45 | 24.42242 | 54.65731 | 53 ft | 10 kts | 129° |
| 2026-04-23 19:46 | 24.42230 | 54.65748 | 53 ft | 1 kts | 125° |
| 2026-04-23 19:46 | 24.42247 | 54.65802 | 58 ft | 13 kts | 51° |
| 2026-04-23 19:46 | 24.42297 | 54.65851 | 54 ft | 15 kts | 38° |
| 2026-04-23 19:46 | 24.42368 | 54.65915 | 54 ft | 13 kts | 48° |
| 2026-04-23 19:47 | 24.42381 | 54.66007 | 53 ft | 13 kts | 110° |
| 2026-04-23 19:47 | 24.42313 | 54.66116 | 56 ft | 13 kts | 126° |
| 2026-04-23 19:47 | 24.42257 | 54.66195 | 57 ft | 13 kts | 128° |
| 2026-04-23 19:47 | 24.42198 | 54.66277 | 53 ft | 14 kts | 128° |
| 2026-04-23 19:48 | 24.42136 | 54.66363 | 52 ft | 15 kts | 128° |
| 2026-04-23 19:48 | 24.42077 | 54.66447 | 57 ft | 12 kts | 127° |
| 2026-04-23 19:48 | 24.42047 | 54.66499 | 55 ft | 12 kts | 110° |
| 2026-04-23 19:48 | 24.42055 | 54.66588 | 53 ft | 12 kts | 64° |
| 2026-04-23 19:49 | 24.42118 | 54.66652 | 53 ft | 13 kts | 28° |
| 2026-04-23 19:49 | 24.42209 | 54.66645 | 50 ft | 20 kts | 320° |
| 2026-04-23 19:49 | 24.42414 | 54.66369 | 53 ft | 92 kts | 308° |
| 2026-04-23 19:49 | 24.43029 | 54.65500 | 105 ft | 187 kts | 309° |
| 2026-04-23 19:50 | 24.43836 | 54.64343 | 1120 ft | 196 kts | 314° |
| 2026-04-23 19:50 | 24.44668 | 54.63180 | 2327 ft | 198 kts | 313° |
| 2026-04-23 19:50 | 24.45581 | 54.61917 | 2740 ft | 227 kts | 312° |
| 2026-04-23 19:50 | 24.46616 | 54.60473 | 3278 ft | 248 kts | 309° |
| 2026-04-23 19:51 | 24.47686 | 54.58964 | 4198 ft | 254 kts | 307° |
| 2026-04-23 19:51 | 24.48777 | 54.57421 | 5106 ft | 259 kts | 306° |
| 2026-04-23 19:51 | 24.50039 | 54.56015 | 5975 ft | 266 kts | 328° |
| 2026-04-23 19:51 | 24.51833 | 54.55514 | 6859 ft | 273 kts | 4° |
| 2026-04-23 19:52 | 24.53686 | 54.55935 | 7780 ft | 274 kts | 12° |
| 2026-04-23 19:52 | 24.55562 | 54.56410 | 8724 ft | 280 kts | 11° |
| 2026-04-23 19:52 | 24.57484 | 54.56875 | 9568 ft | 286 kts | 11° |
| 2026-04-23 19:52 | 24.59437 | 54.57341 | 9976 ft | 288 kts | 11° |
| 2026-04-23 19:53 | 24.61418 | 54.57808 | 9974 ft | 293 kts | 10° |
| 2026-04-23 19:53 | 24.63404 | 54.58272 | 9983 ft | 291 kts | 10° |
| 2026-04-23 19:53 | 24.65377 | 54.58731 | 9975 ft | 289 kts | 10° |
| 2026-04-23 19:53 | 24.67341 | 54.59184 | 10022 ft | 289 kts | 10° |
| 2026-04-23 19:54 | 24.69360 | 54.59648 | 10332 ft | 307 kts | 10° |
| 2026-04-23 19:54 | 24.71572 | 54.60153 | 10626 ft | 341 kts | 10° |
| 2026-04-23 19:54 | 24.74011 | 54.60710 | 10863 ft | 375 kts | 10° |
| 2026-04-23 19:54 | 24.76651 | 54.61314 | 11065 ft | 395 kts | 10° |
| 2026-04-23 19:55 | 24.79361 | 54.61938 | 11292 ft | 399 kts | 10° |
| 2026-04-23 19:55 | 24.82052 | 54.62559 | 11544 ft | 400 kts | 10° |
| 2026-04-23 19:55 | 24.84817 | 54.63196 | 11788 ft | 401 kts | 10° |
| 2026-04-23 19:55 | 24.87527 | 54.63819 | 11905 ft | 404 kts | 10° |
| 2026-04-23 19:56 | 24.90303 | 54.64455 | 11961 ft | 411 kts | 10° |
| 2026-04-23 19:56 | 24.93084 | 54.65216 | 11974 ft | 416 kts | 18° |
| 2026-04-23 19:56 | 24.95609 | 54.66782 | 11979 ft | 417 kts | 36° |
| 2026-04-23 19:56 | 24.97893 | 54.68708 | 11977 ft | 407 kts | 36° |
| 2026-04-23 19:57 | 25.00122 | 54.70538 | 11960 ft | 392 kts | 35° |
| 2026-04-23 19:57 | 25.02298 | 54.72278 | 11964 ft | 383 kts | 34° |
| 2026-04-23 19:57 | 25.04460 | 54.73980 | 11973 ft | 382 kts | 34° |
| 2026-04-23 19:57 | 25.06625 | 54.75674 | 11876 ft | 380 kts | 34° |
| 2026-04-23 19:58 | 25.08775 | 54.77356 | 11499 ft | 378 kts | 34° |
| 2026-04-23 19:58 | 25.10913 | 54.79029 | 11014 ft | 376 kts | 34° |
| 2026-04-23 19:58 | 25.13024 | 54.80686 | 10796 ft | 367 kts | 34° |
| 2026-04-23 19:58 | 25.15062 | 54.82286 | 10721 ft | 353 kts | 34° |
| 2026-04-23 19:59 | 25.16981 | 54.83901 | 10635 ft | 341 kts | 39° |
| 2026-04-23 19:59 | 25.18657 | 54.85661 | 10504 ft | 325 kts | 55° |
| 2026-04-23 19:59 | 25.19470 | 54.87902 | 10393 ft | 309 kts | 86° |
| 2026-04-23 19:59 | 25.19454 | 54.90262 | 10272 ft | 308 kts | 99° |
| 2026-04-23 20:00 | 25.19173 | 54.92575 | 10161 ft | 301 kts | 102° |
| 2026-04-23 20:00 | 25.18843 | 54.94836 | 9965 ft | 296 kts | 102° |
| 2026-04-23 20:00 | 25.18505 | 54.97065 | 9691 ft | 294 kts | 102° |
| 2026-04-23 20:00 | 25.18168 | 54.99286 | 9380 ft | 292 kts | 102° |
| 2026-04-23 20:01 | 25.17835 | 55.01498 | 9044 ft | 292 kts | 102° |
| 2026-04-23 20:01 | 25.17507 | 55.03705 | 8726 ft | 291 kts | 101° |
| 2026-04-23 20:01 | 25.17184 | 55.05902 | 8432 ft | 289 kts | 101° |
| 2026-04-23 20:01 | 25.16863 | 55.08094 | 8111 ft | 289 kts | 101° |
| 2026-04-23 20:02 | 25.16550 | 55.10249 | 8038 ft | 280 kts | 101° |
| 2026-04-23 20:02 | 25.16245 | 55.12347 | 7985 ft | 282 kts | 101° |
| 2026-04-23 20:02 | 25.15935 | 55.14483 | 7812 ft | 283 kts | 101° |
| 2026-04-23 20:02 | 25.15622 | 55.16636 | 7543 ft | 285 kts | 100° |
| 2026-04-23 20:03 | 25.15307 | 55.18802 | 7259 ft | 286 kts | 100° |
| 2026-04-23 20:03 | 25.14993 | 55.20970 | 7028 ft | 286 kts | 100° |
| 2026-04-23 20:03 | 25.14678 | 55.23136 | 6801 ft | 285 kts | 100° |
| 2026-04-23 20:03 | 25.14364 | 55.25293 | 6604 ft | 284 kts | 100° |
| 2026-04-23 20:04 | 25.14051 | 55.27441 | 6400 ft | 282 kts | 99° |
| 2026-04-23 20:04 | 25.13741 | 55.29567 | 6222 ft | 280 kts | 99° |
| 2026-04-23 20:04 | 25.13433 | 55.31679 | 6094 ft | 276 kts | 99° |
| 2026-04-23 20:04 | 25.13132 | 55.33744 | 6027 ft | 268 kts | 99° |
| 2026-04-23 20:05 | 25.12840 | 55.35740 | 5934 ft | 259 kts | 99° |
| 2026-04-23 20:05 | 25.12558 | 55.37672 | 5788 ft | 252 kts | 99° |
| 2026-04-23 20:05 | 25.12282 | 55.39563 | 5560 ft | 249 kts | 99° |
| 2026-04-23 20:05 | 25.12005 | 55.41448 | 5306 ft | 247 kts | 99° |
| 2026-04-23 20:06 | 25.11734 | 55.43292 | 5051 ft | 246 kts | 99° |
| 2026-04-23 20:06 | 25.11461 | 55.45151 | 4791 ft | 245 kts | 98° |
| 2026-04-23 20:06 | 25.11153 | 55.46983 | 4480 ft | 240 kts | 108° |
| 2026-04-23 20:06 | 25.10367 | 55.48610 | 4120 ft | 241 kts | 123° |
| 2026-04-23 20:07 | 25.09450 | 55.50146 | 3875 ft | 239 kts | 121° |
| 2026-04-23 20:07 | 25.08577 | 55.51688 | 3658 ft | 236 kts | 121° |
| 2026-04-23 20:07 | 25.07910 | 55.53298 | 3308 ft | 232 kts | 98° |
| 2026-04-23 20:07 | 25.08084 | 55.55034 | 3043 ft | 227 kts | 64° |
| 2026-04-23 20:08 | 25.09055 | 55.56330 | 2868 ft | 217 kts | 36° |
| 2026-04-23 20:08 | 25.10321 | 55.57121 | 2746 ft | 202 kts | 16° |
| 2026-04-23 20:08 | 25.11667 | 55.57097 | 2586 ft | 193 kts | 342° |
| 2026-04-23 20:08 | 25.12854 | 55.56467 | 2343 ft | 190 kts | 333° |
| 2026-04-23 20:09 | 25.13999 | 55.55753 | 2106 ft | 187 kts | 331° |
| 2026-04-23 20:09 | 25.14932 | 55.54823 | 2014 ft | 182 kts | 308° |
| 2026-04-23 20:09 | 25.15690 | 55.53655 | 2033 ft | 193 kts | 307° |
| 2026-04-23 20:09 | 25.16442 | 55.52394 | 2020 ft | 198 kts | 304° |
| 2026-04-23 20:10 | 25.16932 | 55.51522 | 2007 ft | 196 kts | 304° |
| 2026-04-23 20:10 | 25.17851 | 55.49860 | 1998 ft | 183 kts | 305° |
| 2026-04-23 20:10 | 25.18487 | 55.48707 | 1916 ft | 172 kts | 305° |
| 2026-04-23 20:10 | 25.19084 | 55.47625 | 1693 ft | 157 kts | 306° |
| 2026-04-23 20:11 | 25.19649 | 55.46609 | 1526 ft | 155 kts | 306° |
| 2026-04-23 20:11 | 25.20208 | 55.45599 | 1316 ft | 154 kts | 305° |
| 2026-04-23 20:11 | 25.20766 | 55.44591 | 1127 ft | 153 kts | 304° |
| 2026-04-23 20:11 | 25.21316 | 55.43589 | 931 ft | 151 kts | 304° |
| 2026-04-23 20:12 | 25.21857 | 55.42609 | 722 ft | 148 kts | 303° |
| 2026-04-23 20:12 | 25.22390 | 55.41649 | 530 ft | 148 kts | 303° |
| 2026-04-23 20:12 | 25.22931 | 55.40665 | 365 ft | 150 kts | 303° |
| 2026-04-23 20:12 | 25.23473 | 55.39696 | 121 ft | 147 kts | 303° |
| 2026-04-23 20:13 | 25.23993 | 55.38754 | 29 ft | 136 kts | 303° |
| 2026-04-23 20:13 | 25.24433 | 55.37964 | 27 ft | 103 kts | 301° |
| 2026-04-23 20:13 | 25.24718 | 55.37456 | 27 ft | 45 kts | 299° |
| 2026-04-23 20:13 | 25.24781 | 55.37217 | 27 ft | 23 kts | 276° |
| 2026-04-23 20:14 | 25.24786 | 55.37105 | 27 ft | 12 kts | 272° |
| 2026-04-23 20:14 | 25.24790 | 55.37016 | 27 ft | 12 kts | 276° |
| 2026-04-23 20:14 | 25.24810 | 55.36930 | 27 ft | 12 kts | 294° |
| 2026-04-23 20:14 | 25.24844 | 55.36848 | 27 ft | 12 kts | 291° |
| 2026-04-23 20:15 | 25.24864 | 55.36761 | 27 ft | 12 kts | 283° |
| 2026-04-23 20:15 | 25.24889 | 55.36673 | 27 ft | 14 kts | 295° |
| 2026-04-23 20:15 | 25.24959 | 55.36537 | 27 ft | 25 kts | 301° |
| 2026-04-23 20:15 | 25.25051 | 55.36370 | 27 ft | 25 kts | 301° |
| 2026-04-23 20:16 | 25.25144 | 55.36204 | 27 ft | 25 kts | 302° |
| 2026-04-23 20:16 | 25.25237 | 55.36038 | 27 ft | 25 kts | 301° |
| 2026-04-23 20:16 | 25.25329 | 55.35872 | 27 ft | 25 kts | 301° |
| 2026-04-23 20:16 | 25.25421 | 55.35706 | 27 ft | 25 kts | 302° |
| 2026-04-23 20:17 | 25.25513 | 55.35539 | 27 ft | 25 kts | 301° |
| 2026-04-23 20:17 | 25.25605 | 55.35373 | 27 ft | 25 kts | 302° |
| 2026-04-23 20:17 | 25.25698 | 55.35206 | 27 ft | 25 kts | 301° |
| 2026-04-23 20:17 | 25.25788 | 55.35039 | 27 ft | 25 kts | 301° |
| 2026-04-23 20:18 | 25.25874 | 55.34882 | 27 ft | 13 kts | 302° |
| 2026-04-23 20:18 | 25.25909 | 55.34814 | 27 ft | 7 kts | 285° |
| 2026-04-23 20:18 | 25.25880 | 55.34769 | 27 ft | 8 kts | 216° |
| 2026-04-23 20:18 | 25.25829 | 55.34733 | 27 ft | 9 kts | 210° |
| 2026-04-23 20:19 | 25.25784 | 55.34703 | 27 ft | 0 kts | 211° |
| 2026-04-23 20:19 | 25.25781 | 55.34701 | 27 ft | 0 kts | 211° |